Terminal Aerodrome Forecast
Issued by NWS

Home | Current Version | Previous Version | Text Only | Print | Product List | Glossary On
Versions: 1 2 3 4 5 6 7 8 9 10 11 12
000
FTAK31 PAJN 250500
TAFAPG
TAF
PAPG 250528Z 2506/2606 16003KT P6SM -SHRA SCT027 BKN035 OVC060
     FM251400 00000KT 6SM -RA BR FEW010 OVC035
     FM251700 06004KT 5SM -RA BR SCT010 BKN040 OVC060
      AMD LTD TO CLD VIS AND WIND 2506/2515=

USA.gov is the U.S. government's official web portal to all federal, state and local government web resources and services.